Time;durP1;ratioP1;P1;durP2;ratioP2;P2;SDS_P1;SDS_P2;PMS_P1;PMS_P2;Temp;Humidity;BMP_temperature;BMP_pressure;BME280_temperature;BME280_humidity;BME280_pressure;Samples;Min_cycle;Max_cycle;Signal;HPM_P1;HPM_P2
2022/07/22 00:00:07;;;;;;;8.35;7.63;;;;;;;;;;5051813;28;20209;-67
2022/07/22 00:02:32;;;;;;;8.15;7.30;;;;;;;;;;5051392;28;20123;-68
2022/07/22 00:04:58;;;;;;;9.00;8.23;;;;;;;;;;5050904;28;20029;-67
2022/07/22 00:07:23;;;;;;;8.57;7.82;;;;;;;;;;5050809;28;20087;-67
2022/07/22 00:09:48;;;;;;;10.15;9.32;;;;;;;;;;5051197;28;20033;-67
2022/07/22 00:12:13;;;;;;;9.57;8.68;;;;;;;;;;5050766;28;20029;-67
2022/07/22 00:14:39;;;;;;;10.40;9.43;;;;;;;;;;5043641;28;20078;-67
2022/07/22 00:17:04;;;;;;;10.15;9.15;;;;;;;;;;5050920;28;20072;-68
2022/07/22 00:19:29;;;;;;;10.13;9.13;;;;;;;;;;5050504;28;20410;-69
2022/07/22 00:21:54;;;;;;;12.05;10.07;;;;;;;;;;5051524;28;20134;-68
2022/07/22 00:24:20;;;;;;;9.90;8.93;;;;;;;;;;5051131;28;20036;-68
2022/07/22 00:26:45;;;;;;;9.57;8.68;;;;;;;;;;5034634;28;20390;-67
2022/07/22 00:29:10;;;;;;;10.18;9.20;;;;;;;;;;5051586;28;20383;-67
2022/07/22 00:31:36;;;;;;;9.23;8.32;;;;;;;;;;5050705;28;20111;-67
2022/07/22 00:34:01;;;;;;;10.43;9.48;;;;;;;;;;5050623;28;20032;-68
2022/07/22 00:36:27;;;;;;;10.43;9.45;;;;;;;;;;5051078;28;20542;-68
2022/07/22 00:38:52;;;;;;;9.00;8.20;;;;;;;;;;5050972;28;20103;-67
2022/07/22 00:41:17;;;;;;;9.88;8.98;;;;;;;;;;5036605;28;20064;-67
2022/07/22 00:43:54;;;;;;;10.65;9.63;;;;;;;;;;5032386;28;20472;-66
2022/07/22 00:46:19;;;;;;;10.80;9.70;;;;;;;;;;5051200;28;20027;-67
2022/07/22 00:48:44;;;;;;;9.90;9.00;;;;;;;;;;5051895;28;20025;-67
2022/07/22 00:51:10;;;;;;;10.98;9.98;;;;;;;;;;5051868;28;20554;-67
2022/07/22 00:53:35;;;;;;;10.35;9.45;;;;;;;;;;5052885;28;20108;-67
2022/07/22 00:56:01;;;;;;;10.32;9.52;;;;;;;;;;5053801;28;20055;-66
2022/07/22 00:58:26;;;;;;;9.90;9.02;;;;;;;;;;5054702;28;20036;-68
2022/07/22 01:00:51;;;;;;;9.57;8.65;;;;;;;;;;5054205;28;20032;-67
2022/07/22 01:03:17;;;;;;;10.05;9.05;;;;;;;;;;5055509;28;20042;-67
2022/07/22 01:05:42;;;;;;;10.25;9.35;;;;;;;;;;5054088;28;20036;-68
2022/07/22 01:08:07;;;;;;;9.70;8.80;;;;;;;;;;5036745;28;20037;-67
2022/07/22 01:10:33;;;;;;;10.00;9.18;;;;;;;;;;5054568;28;20021;-67
2022/07/22 01:12:58;;;;;;;10.90;9.77;;;;;;;;;;5053109;28;20116;-67
2022/07/22 01:15:23;;;;;;;9.32;8.38;;;;;;;;;;5054399;28;20031;-68
2022/07/22 01:17:48;;;;;;;9.98;9.07;;;;;;;;;;5055948;28;20052;-68
2022/07/22 01:20:14;;;;;;;9.90;9.00;;;;;;;;;;5054763;28;20032;-67
2022/07/22 01:22:39;;;;;;;9.30;8.48;;;;;;;;;;5052991;28;20056;-69
2022/07/22 01:25:05;;;;;;;10.43;9.63;;;;;;;;;;5053467;28;20033;-68
2022/07/22 01:27:30;;;;;;;10.10;9.20;;;;;;;;;;5053559;28;20025;-67
2022/07/22 01:29:56;;;;;;;10.23;8.98;;;;;;;;;;5054102;28;20041;-67
2022/07/22 01:32:21;;;;;;;10.05;9.05;;;;;;;;;;5054021;28;20430;-67
2022/07/22 01:34:46;;;;;;;9.45;8.55;;;;;;;;;;5055476;28;20032;-68
2022/07/22 01:37:11;;;;;;;10.55;9.55;;;;;;;;;;5053692;28;20172;-67
2022/07/22 01:39:37;;;;;;;9.85;9.05;;;;;;;;;;5053855;28;20529;-67
2022/07/22 01:42:02;;;;;;;9.48;8.68;;;;;;;;;;5055700;28;20175;-68
2022/07/22 01:44:29;;;;;;;10.35;9.45;;;;;;;;;;5053752;28;20581;-68
2022/07/22 01:46:55;;;;;;;9.18;8.27;;;;;;;;;;5053615;28;20476;-68
2022/07/22 01:49:21;;;;;;;9.82;8.88;;;;;;;;;;5055500;28;20031;-68
2022/07/22 01:51:46;;;;;;;9.77;8.88;;;;;;;;;;5054555;28;20146;-67
2022/07/22 01:54:11;;;;;;;10.40;9.40;;;;;;;;;;5053665;28;20037;-68
2022/07/22 01:56:37;;;;;;;9.63;8.77;;;;;;;;;;5052943;28;20028;-68
2022/07/22 01:59:02;;;;;;;10.73;9.73;;;;;;;;;;5053864;28;20029;-68
2022/07/22 02:01:27;;;;;;;10.90;10.00;;;;;;;;;;5053640;28;20441;-68
2022/07/22 02:03:53;;;;;;;9.85;9.05;;;;;;;;;;5052430;28;20082;-68
2022/07/22 02:06:18;;;;;;;10.48;9.57;;;;;;;;;;5053710;28;20467;-67
2022/07/22 02:08:43;;;;;;;10.75;9.85;;;;;;;;;;5035579;28;20380;-67
2022/07/22 02:11:08;;;;;;;11.90;10.68;;;;;;;;;;5052714;28;20025;-67
2022/07/22 02:13:34;;;;;;;10.88;9.90;;;;;;;;;;5052623;28;20037;-67
2022/07/22 02:15:59;;;;;;;11.27;10.15;;;;;;;;;;5039558;28;20060;-67
2022/07/22 02:18:25;;;;;;;11.88;10.88;;;;;;;;;;5038398;28;20039;-66
2022/07/22 02:20:50;;;;;;;10.82;9.82;;;;;;;;;;5053251;28;20111;-68
2022/07/22 02:23:16;;;;;;;10.25;9.35;;;;;;;;;;5033709;28;20493;-67
2022/07/22 02:25:42;;;;;;;10.57;9.68;;;;;;;;;;5036530;28;20032;-68
2022/07/22 02:28:07;;;;;;;10.77;9.77;;;;;;;;;;5036444;28;20036;-67
2022/07/22 02:30:32;;;;;;;10.68;9.88;;;;;;;;;;5052804;28;20036;-68
2022/07/22 02:32:58;;;;;;;11.68;10.45;;;;;;;;;;5052164;28;20529;-67
2022/07/22 02:35:23;;;;;;;10.65;9.75;;;;;;;;;;5037507;28;20837;-67
2022/07/22 02:37:48;;;;;;;10.10;9.10;;;;;;;;;;5035070;28;20554;-67
2022/07/22 02:40:14;;;;;;;12.50;11.27;;;;;;;;;;5052973;28;20049;-68
2022/07/22 02:42:39;;;;;;;12.45;9.57;;;;;;;;;;5054755;28;20094;-66
2022/07/22 02:45:04;;;;;;;10.52;9.68;;;;;;;;;;5051491;28;20392;-68
2022/07/22 02:47:30;;;;;;;11.48;10.38;;;;;;;;;;5039187;28;20040;-67
2022/07/22 02:49:55;;;;;;;11.60;10.23;;;;;;;;;;5053557;28;20021;-66
2022/07/22 02:52:20;;;;;;;10.65;9.73;;;;;;;;;;5053704;28;20033;-67
2022/07/22 02:54:46;;;;;;;11.50;10.45;;;;;;;;;;5051435;28;20128;-67
2022/07/22 02:57:11;;;;;;;11.35;10.43;;;;;;;;;;5051369;28;20523;-67
2022/07/22 02:59:36;;;;;;;11.10;10.15;;;;;;;;;;5052529;28;20052;-67
2022/07/22 03:02:01;;;;;;;10.57;9.75;;;;;;;;;;5052003;28;20483;-67
2022/07/22 03:04:27;;;;;;;11.88;10.70;;;;;;;;;;5049706;28;20025;-68
2022/07/22 03:06:52;;;;;;;11.57;10.52;;;;;;;;;;5035237;28;20055;-67
2022/07/22 03:09:17;;;;;;;12.20;10.13;;;;;;;;;;5051535;28;20543;-68
2022/07/22 03:11:42;;;;;;;11.75;10.43;;;;;;;;;;5051521;28;20033;-67
2022/07/22 03:14:08;;;;;;;12.50;11.20;;;;;;;;;;5051351;28;20056;-67
2022/07/22 03:16:33;;;;;;;11.45;10.00;;;;;;;;;;5050240;28;20040;-67
2022/07/22 03:18:58;;;;;;;11.52;10.35;;;;;;;;;;5053039;28;20482;-67
2022/07/22 03:21:24;;;;;;;12.63;11.07;;;;;;;;;;5034600;28;20017;-67
2022/07/22 03:23:53;;;;;;;10.45;9.57;;;;;;;;;;5031817;28;20044;-67
2022/07/22 03:26:18;;;;;;;11.20;10.10;;;;;;;;;;5050440;28;20017;-67
2022/07/22 03:28:44;;;;;;;12.88;10.60;;;;;;;;;;5052113;28;20036;-67
2022/07/22 03:31:09;;;;;;;12.13;10.48;;;;;;;;;;5051219;28;20029;-68
2022/07/22 03:33:34;;;;;;;11.43;10.43;;;;;;;;;;5051964;28;20044;-69
2022/07/22 03:35:59;;;;;;;11.68;10.57;;;;;;;;;;5037556;28;20108;-68
2022/07/22 03:38:25;;;;;;;11.00;10.10;;;;;;;;;;5051019;28;20052;-68
2022/07/22 03:40:50;;;;;;;10.85;9.93;;;;;;;;;;5030602;28;20029;-68
2022/07/22 03:43:15;;;;;;;11.88;10.57;;;;;;;;;;5049103;28;20083;-68
2022/07/22 03:45:40;;;;;;;22.02;10.35;;;;;;;;;;5035484;28;20032;-68
2022/07/22 03:48:05;;;;;;;11.23;10.02;;;;;;;;;;5050307;28;20033;-68
2022/07/22 03:50:31;;;;;;;10.90;9.90;;;;;;;;;;5031907;28;20494;-67
2022/07/22 03:52:56;;;;;;;13.07;11.65;;;;;;;;;;5037145;28;20028;-68
2022/07/22 03:55:21;;;;;;;10.73;9.73;;;;;;;;;;5052609;28;20043;-68
2022/07/22 03:57:46;;;;;;;11.60;10.50;;;;;;;;;;5050154;28;20107;-68
2022/07/22 04:00:12;;;;;;;11.48;10.35;;;;;;;;;;5052652;28;20569;-68
2022/07/22 04:02:37;;;;;;;11.38;10.40;;;;;;;;;;5050426;28;20029;-69
2022/07/22 04:05:03;;;;;;;10.77;9.80;;;;;;;;;;5031860;28;20505;-68
2022/07/22 04:07:28;;;;;;;10.80;9.82;;;;;;;;;;5049545;28;20033;-68
2022/07/22 04:10:04;;;;;;;12.13;10.98;;;;;;;;;;5048026;28;20060;-68
2022/07/22 04:12:29;;;;;;;11.48;9.93;;;;;;;;;;5036346;28;20353;-67
2022/07/22 04:14:55;;;;;;;11.13;10.20;;;;;;;;;;5050896;28;20085;-67
2022/07/22 04:17:20;;;;;;;10.85;9.90;;;;;;;;;;5052764;28;20082;-67
2022/07/22 04:19:45;;;;;;;11.77;10.57;;;;;;;;;;5035405;28;20451;-67
2022/07/22 04:22:10;;;;;;;13.40;10.35;;;;;;;;;;5050596;28;20547;-67
2022/07/22 04:24:35;;;;;;;10.27;9.27;;;;;;;;;;5049994;28;20025;-67
2022/07/22 04:27:01;;;;;;;10.40;9.50;;;;;;;;;;5051470;28;20420;-67
2022/07/22 04:29:26;;;;;;;11.70;10.60;;;;;;;;;;5055861;28;20494;-67
2022/07/22 04:31:51;;;;;;;11.00;9.90;;;;;;;;;;5055061;28;20040;-67
2022/07/22 04:34:18;;;;;;;11.43;10.32;;;;;;;;;;5035880;28;20021;-67
2022/07/22 04:36:43;;;;;;;11.15;10.13;;;;;;;;;;5054314;28;20525;-68
2022/07/22 04:39:08;;;;;;;11.00;10.10;;;;;;;;;;5053245;28;20122;-68
2022/07/22 04:41:34;;;;;;;10.18;9.38;;;;;;;;;;5054074;28;20566;-68
2022/07/22 04:43:59;;;;;;;11.75;10.57;;;;;;;;;;5053524;28;20538;-67
2022/07/22 04:46:24;;;;;;;10.63;9.65;;;;;;;;;;5052088;28;20031;-67
2022/07/22 04:48:49;;;;;;;9.63;8.75;;;;;;;;;;5053966;28;20470;-67
2022/07/22 04:51:15;;;;;;;11.27;10.25;;;;;;;;;;5054858;28;20146;-67
2022/07/22 04:53:40;;;;;;;10.95;10.05;;;;;;;;;;5054726;28;20116;-68
2022/07/22 04:56:05;;;;;;;10.23;9.25;;;;;;;;;;5054923;28;20135;-67
2022/07/22 04:58:30;;;;;;;11.30;9.43;;;;;;;;;;5054158;28;20058;-68
2022/07/22 05:00:56;;;;;;;12.57;10.38;;;;;;;;;;5055332;28;20051;-68
2022/07/22 05:03:21;;;;;;;10.20;9.27;;;;;;;;;;5054227;28;20382;-68
2022/07/22 05:05:46;;;;;;;10.30;9.27;;;;;;;;;;5054577;28;20558;-67
2022/07/22 05:08:12;;;;;;;10.15;9.23;;;;;;;;;;5053418;28;20025;-67
2022/07/22 05:10:37;;;;;;;10.30;9.40;;;;;;;;;;5053751;28;20068;-66
2022/07/22 05:13:02;;;;;;;9.43;8.63;;;;;;;;;;5052666;28;20293;-67
2022/07/22 05:15:28;;;;;;;13.40;9.25;;;;;;;;;;5036613;28;20052;-66
2022/07/22 05:17:53;;;;;;;9.50;8.68;;;;;;;;;;5038052;28;20033;-67
2022/07/22 05:20:18;;;;;;;9.95;8.95;;;;;;;;;;5055103;28;20079;-67
2022/07/22 05:22:43;;;;;;;9.25;8.48;;;;;;;;;;5051847;28;20037;-67
2022/07/22 05:25:09;;;;;;;9.07;8.35;;;;;;;;;;5052765;28;20032;-67
2022/07/22 05:27:34;;;;;;;9.75;8.95;;;;;;;;;;5055127;28;20405;-66
2022/07/22 05:29:59;;;;;;;10.00;9.10;;;;;;;;;;5053624;28;20462;-68
2022/07/22 05:32:24;;;;;;;9.50;8.70;;;;;;;;;;5052963;28;20130;-67
2022/07/22 05:34:50;;;;;;;9.40;8.57;;;;;;;;;;5052084;28;20029;-67
2022/07/22 05:37:15;;;;;;;8.90;8.20;;;;;;;;;;5055140;28;20334;-67
2022/07/22 05:39:41;;;;;;;12.07;9.07;;;;;;;;;;5055162;28;20068;-67
2022/07/22 05:42:07;;;;;;;9.55;8.60;;;;;;;;;;5074420;28;20155;-66
2022/07/22 05:44:32;;;;;;;9.07;8.38;;;;;;;;;;5073143;28;20032;-67
2022/07/22 05:46:57;;;;;;;9.02;8.23;;;;;;;;;;5071899;28;20812;-67
2022/07/22 05:49:24;;;;;;;9.15;7.72;;;;;;;;;;5058950;28;20389;-66
2022/07/22 05:51:49;;;;;;;9.18;7.82;;;;;;;;;;5074016;28;20029;-68
2022/07/22 05:54:15;;;;;;;8.65;7.95;;;;;;;;;;5075122;28;20456;-67
2022/07/22 05:56:40;;;;;;;9.73;8.93;;;;;;;;;;5075463;28;20067;-68
2022/07/22 05:59:05;;;;;;;9.38;8.48;;;;;;;;;;5072831;28;20084;-67
2022/07/22 06:01:30;;;;;;;9.55;7.75;;;;;;;;;;5075605;28;20032;-67
2022/07/22 06:03:56;;;;;;;9.57;8.60;;;;;;;;;;5072642;28;20051;-67
2022/07/22 06:06:21;;;;;;;8.75;8.05;;;;;;;;;;5072633;28;20608;-67
2022/07/22 06:08:46;;;;;;;9.60;8.75;;;;;;;;;;5071590;28;20472;-68
2022/07/22 06:11:11;;;;;;;11.32;8.75;;;;;;;;;;5072828;28;20363;-67
2022/07/22 06:13:37;;;;;;;9.02;8.23;;;;;;;;;;5073289;28;20500;-69
2022/07/22 06:16:03;;;;;;;9.30;8.50;;;;;;;;;;5073805;28;20118;-66
2022/07/22 06:18:28;;;;;;;9.95;9.15;;;;;;;;;;5071284;28;20032;-68
2022/07/22 06:20:53;;;;;;;9.50;8.73;;;;;;;;;;5070696;28;20042;-67
2022/07/22 06:23:18;;;;;;;10.07;9.27;;;;;;;;;;5073423;28;20060;-68
2022/07/22 06:25:44;;;;;;;10.65;9.63;;;;;;;;;;5073363;28;20088;-67
2022/07/22 06:28:09;;;;;;;9.43;8.57;;;;;;;;;;5072944;28;20497;-67
2022/07/22 06:30:35;;;;;;;10.63;9.73;;;;;;;;;;5074194;28;20051;-67
2022/07/22 06:33:01;;;;;;;10.30;9.30;;;;;;;;;;5073030;28;20494;-68
2022/07/22 06:35:27;;;;;;;9.88;8.88;;;;;;;;;;5072896;28;20028;-67
2022/07/22 06:37:52;;;;;;;10.68;9.77;;;;;;;;;;5072874;28;20043;-68
2022/07/22 06:40:17;;;;;;;10.13;9.32;;;;;;;;;;5056780;28;20048;-68
2022/07/22 06:42:43;;;;;;;9.80;9.07;;;;;;;;;;5052946;28;20377;-67
2022/07/22 06:45:08;;;;;;;11.07;10.18;;;;;;;;;;5052592;28;20032;-68
2022/07/22 06:47:35;;;;;;;11.10;10.13;;;;;;;;;;5052572;28;20041;-69
2022/07/22 06:50:02;;;;;;;10.88;9.90;;;;;;;;;;5052890;28;20024;-68
2022/07/22 06:52:27;;;;;;;13.95;10.68;;;;;;;;;;5053135;28;20036;-68
2022/07/22 06:54:53;;;;;;;11.68;9.68;;;;;;;;;;5052090;28;20493;-67
2022/07/22 06:57:18;;;;;;;10.23;9.23;;;;;;;;;;5052275;28;20024;-68
2022/07/22 06:59:43;;;;;;;11.32;10.27;;;;;;;;;;5035982;28;20033;-67
2022/07/22 07:02:09;;;;;;;10.35;9.57;;;;;;;;;;5053315;28;20033;-68
2022/07/22 07:04:34;;;;;;;10.38;9.52;;;;;;;;;;5033777;28;20032;-68
2022/07/22 07:06:59;;;;;;;11.13;10.23;;;;;;;;;;5050730;28;20483;-67
2022/07/22 07:09:24;;;;;;;10.32;9.52;;;;;;;;;;5050268;28;20029;-69
2022/07/22 07:11:50;;;;;;;9.93;9.23;;;;;;;;;;5052634;28;20037;-68
2022/07/22 07:14:15;;;;;;;9.98;8.98;;;;;;;;;;5052302;28;20051;-67
2022/07/22 07:16:40;;;;;;;10.75;9.75;;;;;;;;;;5052833;28;20029;-68
2022/07/22 07:19:05;;;;;;;10.45;9.55;;;;;;;;;;5050901;28;20021;-67
2022/07/22 07:21:30;;;;;;;11.23;10.27;;;;;;;;;;5051744;28;20028;-68
2022/07/22 07:23:56;;;;;;;10.75;9.70;;;;;;;;;;5051354;28;20546;-68
2022/07/22 07:26:21;;;;;;;12.63;10.20;;;;;;;;;;5050952;28;20032;-68
2022/07/22 07:28:46;;;;;;;10.80;10.00;;;;;;;;;;5030764;28;20364;-68
2022/07/22 07:31:12;;;;;;;11.32;10.40;;;;;;;;;;5050319;28;20036;-69
2022/07/22 07:33:37;;;;;;;10.75;9.88;;;;;;;;;;5052405;28;20094;-68
2022/07/22 07:36:02;;;;;;;10.82;9.95;;;;;;;;;;5037637;28;20036;-68
2022/07/22 07:38:28;;;;;;;11.30;10.32;;;;;;;;;;5053351;28;20048;-68
2022/07/22 07:40:53;;;;;;;11.63;10.63;;;;;;;;;;5043260;28;20127;-69
2022/07/22 07:43:18;;;;;;;11.57;10.68;;;;;;;;;;5033217;28;20549;-68
2022/07/22 07:45:43;;;;;;;11.45;10.55;;;;;;;;;;5050825;28;20031;-69
2022/07/22 07:48:09;;;;;;;10.82;10.02;;;;;;;;;;5031154;28;20454;-68
2022/07/22 07:50:35;;;;;;;9.95;9.05;;;;;;;;;;5050654;28;20438;-67
2022/07/22 07:53:00;;;;;;;10.93;9.82;;;;;;;;;;5050223;28;20081;-68
2022/07/22 07:55:25;;;;;;;10.80;9.90;;;;;;;;;;5052554;28;20559;-68
2022/07/22 07:57:51;;;;;;;9.18;8.57;;;;;;;;;;5049027;28;20581;-68
2022/07/22 08:00:17;;;;;;;10.80;10.00;;;;;;;;;;5048798;28;20033;-68
2022/07/22 08:02:43;;;;;;;11.68;10.55;;;;;;;;;;5049088;28;20036;-68
2022/07/22 08:05:08;;;;;;;10.68;9.73;;;;;;;;;;5052889;28;20035;-68
2022/07/22 08:07:34;;;;;;;10.23;9.32;;;;;;;;;;5036563;28;20017;-68
2022/07/22 08:09:59;;;;;;;11.25;10.30;;;;;;;;;;5049886;28;20037;-68
2022/07/22 08:12:24;;;;;;;10.77;9.90;;;;;;;;;;5049594;28;20090;-68
2022/07/22 08:14:50;;;;;;;9.65;8.73;;;;;;;;;;5053459;28;20025;-67
2022/07/22 08:17:15;;;;;;;10.38;9.57;;;;;;;;;;5050640;28;20091;-67
2022/07/22 08:19:40;;;;;;;10.60;9.70;;;;;;;;;;5049931;28;20476;-70
2022/07/22 08:22:06;;;;;;;10.68;9.88;;;;;;;;;;5037833;28;20124;-67
2022/07/22 08:24:31;;;;;;;9.88;9.18;;;;;;;;;;5051997;28;20048;-69
2022/07/22 08:26:56;;;;;;;10.88;10.05;;;;;;;;;;5052591;28;20022;-68
2022/07/22 08:29:21;;;;;;;9.77;8.88;;;;;;;;;;5050316;28;20028;-69
2022/07/22 08:31:47;;;;;;;10.63;9.63;;;;;;;;;;5052035;28;20561;-68
2022/07/22 08:34:12;;;;;;;11.05;9.40;;;;;;;;;;5037775;28;20027;-68
2022/07/22 08:36:37;;;;;;;9.70;9.00;;;;;;;;;;5051582;28;20084;-68
2022/07/22 08:39:03;;;;;;;11.13;10.32;;;;;;;;;;5050336;28;20513;-68
2022/07/22 08:41:33;;;;;;;10.25;9.45;;;;;;;;;;5051009;28;20044;-69
2022/07/22 08:43:58;;;;;;;9.40;8.80;;;;;;;;;;5049993;28;20649;-67
2022/07/22 08:46:23;;;;;;;10.43;9.52;;;;;;;;;;5052005;28;20032;-67
2022/07/22 08:48:49;;;;;;;10.52;9.75;;;;;;;;;;5048390;28;20037;-69
2022/07/22 08:51:14;;;;;;;10.52;9.77;;;;;;;;;;5034254;28;20033;-68
2022/07/22 08:53:39;;;;;;;11.38;10.15;;;;;;;;;;5035795;28;20029;-68
2022/07/22 08:56:05;;;;;;;10.73;9.85;;;;;;;;;;5050649;28;20028;-67
2022/07/22 08:58:31;;;;;;;11.00;9.95;;;;;;;;;;5051170;28;20032;-68
2022/07/22 09:01:05;;;;;;;10.25;9.45;;;;;;;;;;5049937;28;20414;-69
2022/07/22 09:03:31;;;;;;;;;;;;;;;;;;5050704;28;20064;-67
2022/07/22 09:05:56;;;;;;;10.20;9.30;;;;;;;;;;5052040;28;20006;-68
2022/07/22 09:08:21;;;;;;;10.50;9.70;;;;;;;;;;5050371;28;20800;-68
2022/07/22 09:10:47;;;;;;;11.13;10.23;;;;;;;;;;5050478;28;20115;-68
2022/07/22 09:13:14;;;;;;;13.13;11.90;;;;;;;;;;5052022;28;20033;-68
2022/07/22 09:15:46;;;;;;;13.85;12.52;;;;;;;;;;5055324;28;20502;-68
2022/07/22 09:18:11;;;;;;;10.43;9.63;;;;;;;;;;5054860;28;20056;-68
2022/07/22 09:20:37;;;;;;;9.85;9.18;;;;;;;;;;5055296;28;20122;-68
2022/07/22 09:23:09;;;;;;;11.65;10.65;;;;;;;;;;5056124;28;20043;-68
2022/07/22 09:25:36;;;;;;;10.85;9.95;;;;;;;;;;5054350;28;20553;-67
2022/07/22 09:28:07;;;;;;;12.15;11.15;;;;;;;;;;5039281;28;20024;-68
2022/07/22 09:30:51;;;;;;;11.23;10.30;;;;;;;;;;5054582;28;20367;-68
2022/07/22 09:33:17;;;;;;;11.18;10.27;;;;;;;;;;5054307;28;20036;-69
2022/07/22 09:35:43;;;;;;;10.80;9.93;;;;;;;;;;5054157;28;20037;-68
2022/07/22 09:38:09;;;;;;;11.38;10.38;;;;;;;;;;5053416;28;20346;-68
2022/07/22 09:40:35;;;;;;;11.68;10.50;;;;;;;;;;5072574;28;20057;-68
2022/07/22 09:43:05;;;;;;;11.90;10.85;;;;;;;;;;5073137;28;20131;-68
2022/07/22 09:45:31;;;;;;;12.00;10.88;;;;;;;;;;5074297;28;20470;-68
2022/07/22 09:47:57;;;;;;;10.32;9.38;;;;;;;;;;5074929;28;20377;-68
2022/07/22 09:50:27;;;;;;;10.68;9.88;;;;;;;;;;5073795;28;20035;-67
2022/07/22 09:52:53;;;;;;;11.10;10.25;;;;;;;;;;5074730;28;20032;-67
2022/07/22 09:55:20;;;;;;;11.65;10.57;;;;;;;;;;5074733;28;20053;-68
2022/07/22 09:57:45;;;;;;;11.68;10.77;;;;;;;;;;5073156;28;20028;-68
2022/07/22 10:00:12;;;;;;;12.55;10.10;;;;;;;;;;5073257;28;20028;-68
2022/07/22 10:02:44;;;;;;;12.27;11.13;;;;;;;;;;5073678;28;20036;-67
2022/07/22 10:05:11;;;;;;;11.32;10.52;;;;;;;;;;5072979;28;20028;-68
2022/07/22 10:07:37;;;;;;;11.80;10.82;;;;;;;;;;5072285;28;20062;-69
2022/07/22 10:10:03;;;;;;;12.10;11.13;;;;;;;;;;5073810;28;20073;-68
2022/07/22 10:12:30;;;;;;;10.38;9.57;;;;;;;;;;5071675;28;20364;-68
2022/07/22 10:14:55;;;;;;;11.27;10.45;;;;;;;;;;5081694;28;20361;-67
2022/07/22 10:17:20;;;;;;;12.02;10.85;;;;;;;;;;5071607;28;20063;-67
2022/07/22 10:19:46;;;;;;;12.10;10.82;;;;;;;;;;5070842;28;20082;-67
2022/07/22 10:22:30;;;;;;;11.38;10.48;;;;;;;;;;5073608;28;20036;-67
2022/07/22 10:25:02;;;;;;;10.85;10.05;;;;;;;;;;5081355;28;20133;-68
2022/07/22 10:27:43;;;;;;;10.93;10.13;;;;;;;;;;5072173;28;20029;-68
2022/07/22 10:30:09;;;;;;;11.50;10.60;;;;;;;;;;5071773;28;20378;-68
2022/07/22 10:32:34;;;;;;;12.82;11.52;;;;;;;;;;5071423;28;20028;-68
2022/07/22 10:35:09;;;;;;;11.93;10.93;;;;;;;;;;5072675;28;20416;-69
2022/07/22 10:37:34;;;;;;;;;;;;;;;;;;5073376;28;20047;-68
2022/07/22 10:40:24;;;;;;;13.13;11.73;;;;;;;;;;5056123;28;20390;-68
2022/07/22 10:43:03;;;;;;;12.02;10.80;;;;;;;;;;5052918;28;20033;-68
2022/07/22 10:45:45;;;;;;;12.15;11.35;;;;;;;;;;5052499;28;20074;-67
2022/07/22 10:48:11;;;;;;;12.32;11.35;;;;;;;;;;5033308;28;20095;-67
2022/07/22 10:50:40;;;;;;;11.65;10.75;;;;;;;;;;5053833;28;20507;-67
2022/07/22 10:53:16;;;;;;;11.73;10.75;;;;;;;;;;5050521;28;20033;-68
2022/07/22 10:56:20;;;;;;;13.30;12.20;;;;;;;;;;5052495;28;20471;-68
2022/07/22 10:58:47;;;;;;;11.85;10.80;;;;;;;;;;4981442;28;20503;-67
2022/07/22 11:01:13;;;;;;;12.30;11.25;;;;;;;;;;4980098;28;20053;-67
2022/07/22 11:03:41;;;;;;;11.15;10.30;;;;;;;;;;4980902;28;20049;-68
2022/07/22 11:06:32;;;;;;;12.05;11.20;;;;;;;;;;4981518;28;20030;-68
2022/07/22 11:08:59;;;;;;;11.40;10.50;;;;;;;;;;4979083;28;20039;-68
2022/07/22 11:11:32;;;;;;;12.07;10.98;;;;;;;;;;4980165;28;20065;-68
2022/07/22 11:13:57;;;;;;;12.05;11.05;;;;;;;;;;4979368;28;20492;-69
2022/07/22 11:16:24;;;;;;;11.73;10.68;;;;;;;;;;4981797;28;20046;-68
2022/07/22 11:18:49;;;;;;;11.90;11.00;;;;;;;;;;4981130;28;20392;-69
2022/07/22 11:21:18;;;;;;;12.50;11.60;;;;;;;;;;4979921;28;20022;-68
2022/07/22 11:23:44;;;;;;;11.82;10.93;;;;;;;;;;4979159;28;20834;-69
2022/07/22 11:26:10;;;;;;;11.75;10.85;;;;;;;;;;4979932;28;20153;-68
2022/07/22 11:28:42;;;;;;;11.73;10.68;;;;;;;;;;4988809;28;20055;-68
2022/07/22 11:31:08;;;;;;;12.95;11.90;;;;;;;;;;5050474;28;20027;-67
2022/07/22 11:33:34;;;;;;;12.10;11.20;;;;;;;;;;5047743;28;20036;-68
2022/07/22 11:36:05;;;;;;;12.30;11.48;;;;;;;;;;5035602;28;20029;-67
2022/07/22 11:38:50;;;;;;;12.75;11.55;;;;;;;;;;5052008;28;20028;-69
2022/07/22 11:41:16;;;;;;;11.48;10.57;;;;;;;;;;5048107;28;20585;-68
2022/07/22 11:43:48;;;;;;;11.13;10.23;;;;;;;;;;5048476;28;20136;-68
2022/07/22 11:46:16;;;;;;;12.82;11.48;;;;;;;;;;5051606;28;20024;-68
2022/07/22 11:48:42;;;;;;;12.70;11.80;;;;;;;;;;5051854;28;20396;-67
2022/07/22 11:51:09;;;;;;;12.18;10.93;;;;;;;;;;5050501;28;20028;-68
2022/07/22 11:53:35;;;;;;;13.07;12.05;;;;;;;;;;5033571;28;20032;-68
2022/07/22 11:56:01;;;;;;;12.10;11.20;;;;;;;;;;5052947;28;20021;-68
2022/07/22 11:58:43;;;;;;;11.95;10.95;;;;;;;;;;5049766;28;20028;-69
2022/07/22 12:01:09;;;;;;;11.57;10.57;;;;;;;;;;5048449;28;20433;-69
2022/07/22 12:03:38;;;;;;;11.20;10.25;;;;;;;;;;5050384;28;20044;-62
2022/07/22 12:06:04;;;;;;;11.25;10.40;;;;;;;;;;5051976;28;20024;-62
2022/07/22 12:08:30;;;;;;;11.82;10.88;;;;;;;;;;5033670;28;20467;-62
2022/07/22 12:10:56;;;;;;;13.05;10.30;;;;;;;;;;5047749;28;20044;-62
2022/07/22 12:13:27;;;;;;;10.73;10.02;;;;;;;;;;5048983;28;20025;-63
2022/07/22 12:15:52;;;;;;;12.40;11.40;;;;;;;;;;5049735;28;20150;-61
2022/07/22 12:18:19;;;;;;;10.48;9.70;;;;;;;;;;5047485;28;20467;-63
2022/07/22 12:20:45;;;;;;;11.13;10.20;;;;;;;;;;5039854;28;20056;-62
2022/07/22 12:23:11;;;;;;;11.43;10.30;;;;;;;;;;5045803;28;20036;-63
2022/07/22 12:25:49;;;;;;;11.52;10.73;;;;;;;;;;5046414;28;20024;-63
2022/07/22 12:28:14;;;;;;;11.55;10.32;;;;;;;;;;5047486;28;20497;-64
2022/07/22 12:30:41;;;;;;;10.85;10.02;;;;;;;;;;5023949;28;20364;-64
2022/07/22 12:33:12;;;;;;;11.05;10.20;;;;;;;;;;4995124;28;20057;-64
2022/07/22 12:35:37;;;;;;;11.55;10.65;;;;;;;;;;5028202;28;20040;-64
2022/07/22 12:38:06;;;;;;;10.90;10.13;;;;;;;;;;5028060;28;20321;-64
2022/07/22 12:40:31;;;;;;;11.45;10.45;;;;;;;;;;5048327;28;20223;-68
2022/07/22 12:43:01;;;;;;;10.82;9.93;;;;;;;;;;5047744;28;20047;-68
2022/07/22 12:45:26;;;;;;;10.15;9.38;;;;;;;;;;5055885;28;20036;-68
2022/07/22 12:48:06;;;;;;;11.70;10.50;;;;;;;;;;5046967;28;20036;-68
2022/07/22 12:50:33;;;;;;;11.43;10.43;;;;;;;;;;5050102;28;20029;-68
2022/07/22 12:52:59;;;;;;;10.45;9.65;;;;;;;;;;5054538;28;20028;-69
2022/07/22 12:55:26;;;;;;;10.75;9.77;;;;;;;;;;5053186;28;20032;-67
2022/07/22 12:57:51;;;;;;;10.45;9.55;;;;;;;;;;5051863;28;20029;-69
2022/07/22 13:00:29;;;;;;;11.35;9.93;;;;;;;;;;5051084;28;20408;-67
2022/07/22 13:02:55;;;;;;;10.05;9.35;;;;;;;;;;5054020;28;20119;-68
2022/07/22 13:05:21;;;;;;;9.88;9.07;;;;;;;;;;5051599;28;20025;-68
2022/07/22 13:07:47;;;;;;;10.23;9.52;;;;;;;;;;5050551;28;20024;-68
2022/07/22 13:10:13;;;;;;;12.10;11.15;;;;;;;;;;5051119;28;20516;-68
2022/07/22 13:12:39;;;;;;;11.73;10.85;;;;;;;;;;5052226;28;20075;-69
2022/07/22 13:15:04;;;;;;;11.43;10.32;;;;;;;;;;5052177;28;20029;-69
2022/07/22 13:17:30;;;;;;;10.95;10.18;;;;;;;;;;5050468;28;20137;-69
2022/07/22 13:19:55;;;;;;;10.48;9.57;;;;;;;;;;5051413;28;20461;-68
2022/07/22 13:22:20;;;;;;;12.13;11.20;;;;;;;;;;5053023;28;20050;-69
2022/07/22 13:24:46;;;;;;;10.65;9.80;;;;;;;;;;5050776;28;20033;-69
2022/07/22 13:27:11;;;;;;;11.05;10.20;;;;;;;;;;5050483;28;20037;-69
2022/07/22 13:29:36;;;;;;;10.30;9.57;;;;;;;;;;5051387;28;20032;-68
2022/07/22 13:32:02;;;;;;;11.65;10.20;;;;;;;;;;5051833;28;20557;-69
2022/07/22 13:34:27;;;;;;;11.30;10.35;;;;;;;;;;5050327;28;20143;-69
2022/07/22 13:36:52;;;;;;;12.35;10.60;;;;;;;;;;5048727;28;20424;-68
2022/07/22 13:39:17;;;;;;;11.38;10.57;;;;;;;;;;5060749;28;20064;-69
2022/07/22 13:41:43;;;;;;;12.00;11.05;;;;;;;;;;5054559;28;20032;-69
2022/07/22 13:44:08;;;;;;;11.35;10.43;;;;;;;;;;5051612;28;20094;-69
2022/07/22 13:46:36;;;;;;;11.75;10.70;;;;;;;;;;5054911;28;20070;-69
2022/07/22 13:49:02;;;;;;;12.35;11.05;;;;;;;;;;5071607;28;20021;-69
2022/07/22 13:51:27;;;;;;;10.88;10.02;;;;;;;;;;5071472;28;20055;-69
2022/07/22 13:53:52;;;;;;;10.93;10.13;;;;;;;;;;5070229;28;20032;-68
2022/07/22 13:56:17;;;;;;;11.00;10.10;;;;;;;;;;5070856;28;20032;-68
2022/07/22 13:58:43;;;;;;;10.27;9.52;;;;;;;;;;5072246;28;20533;-69
2022/07/22 14:01:09;;;;;;;11.32;10.32;;;;;;;;;;5070987;28;20059;-69
2022/07/22 14:03:34;;;;;;;10.80;9.95;;;;;;;;;;5069262;28;20033;-69
2022/07/22 14:06:00;;;;;;;10.18;9.38;;;;;;;;;;5071126;28;20055;-69
2022/07/22 14:08:25;;;;;;;10.17;9.27;;;;;;;;;;5072045;28;20033;-68
2022/07/22 14:10:50;;;;;;;11.18;10.25;;;;;;;;;;5069970;28;20271;-69
2022/07/22 14:13:16;;;;;;;10.68;9.75;;;;;;;;;;5069493;28;20032;-69
2022/07/22 14:15:41;;;;;;;10.07;9.23;;;;;;;;;;5069854;28;20025;-68
2022/07/22 14:18:07;;;;;;;10.30;9.50;;;;;;;;;;5071473;28;20074;-69
2022/07/22 14:20:32;;;;;;;11.60;10.60;;;;;;;;;;5051997;28;20024;-69